Time;durP1;ratioP1;P1;durP2;ratioP2;P2;SDS_P1;SDS_P2;PMS_P1;PMS_P2;Temp;Humidity;BMP_temperature;BMP_pressure;BME280_temperature;BME280_humidity;BME280_pressure;Samples;Min_cycle;Max_cycle;Signal;HPM_P1;HPM_P2
2022/07/15 00:01:25;;;;;;;4.93;4.63;;;19.30;99.90;;;;;;5058945;28;20643;-77
2022/07/15 00:03:51;;;;;;;6.00;5.10;;;19.10;99.90;;;;;;5077125;28;20936;-77
2022/07/15 00:06:18;;;;;;;5.13;4.83;;;18.80;99.90;;;;;;5077499;28;20575;-77
2022/07/15 00:08:44;;;;;;;6.47;5.10;;;18.70;99.90;;;;;;5078685;28;21218;-77
2022/07/15 00:11:11;;;;;;;4.87;4.40;;;18.50;99.90;;;;;;5077837;28;20570;-76
2022/07/15 00:13:37;;;;;;;4.83;4.53;;;18.30;99.90;;;;;;5078067;28;20637;-77
2022/07/15 00:16:04;;;;;;;5.67;5.20;;;18.30;99.90;;;;;;5078211;28;20672;-78
2022/07/15 00:18:30;;;;;;;4.97;4.57;;;18.30;99.90;;;;;;5077941;28;20650;-77
2022/07/15 00:20:57;;;;;;;5.47;4.90;;;18.20;99.90;;;;;;5060374;28;20618;-77
2022/07/15 00:23:23;;;;;;;4.70;3.90;;;18.30;99.90;;;;;;5078418;28;20583;-77
2022/07/15 00:25:50;;;;;;;7.90;4.80;;;18.40;99.90;;;;;;5059918;28;20935;-78
2022/07/15 00:28:16;;;;;;;4.93;4.40;;;18.60;99.90;;;;;;5078555;28;20626;-78
2022/07/15 00:30:43;;;;;;;4.50;4.10;;;18.60;99.90;;;;;;5060428;28;20574;-77
2022/07/15 00:33:10;;;;;;;4.70;4.40;;;18.60;99.90;;;;;;5059488;28;20630;-77
2022/07/15 00:35:38;;;;;;;5.60;4.07;;;18.70;99.90;;;;;;5059280;28;21055;-77
2022/07/15 00:38:09;;;;;;;5.23;4.83;;;18.70;99.90;;;;;;5076422;28;20638;-77
2022/07/15 00:40:40;;;;;;;8.30;5.40;;;18.80;99.90;;;;;;5076580;28;20648;-77
2022/07/15 00:43:06;;;;;;;4.87;4.47;;;18.70;99.90;;;;;;5058970;28;20571;-77
2022/07/15 00:45:33;;;;;;;7.00;3.90;;;18.50;99.90;;;;;;5076257;28;20948;-77
2022/07/15 00:48:00;;;;;;;4.33;3.93;;;18.30;99.90;;;;;;5075936;28;20934;-77
2022/07/15 00:50:29;;;;;;;4.40;4.00;;;18.20;99.90;;;;;;5057985;28;20618;-77
2022/07/15 00:53:07;;;;;;;7.43;4.17;;;18.00;99.90;;;;;;5076482;28;21149;-78
2022/07/15 00:55:40;;;;;;;5.80;4.70;;;17.90;99.90;;;;;;5076625;28;20633;-76
2022/07/15 00:58:08;;;;;;;4.30;3.90;;;17.70;99.90;;;;;;5076107;28;20637;-76
2022/07/15 01:00:34;;;;;;;3.90;3.60;;;17.70;99.90;;;;;;5076056;28;20606;-77
2022/07/15 01:03:01;;;;;;;6.27;5.17;;;17.60;99.90;;;;;;5076779;28;21079;-77
2022/07/15 01:05:29;;;;;;;7.73;4.10;;;17.40;99.90;;;;;;5076745;28;20602;-77
2022/07/15 01:07:56;;;;;;;4.57;4.20;;;17.40;99.90;;;;;;5058959;28;20604;-77
2022/07/15 01:10:26;;;;;;;9.50;3.77;;;17.40;99.90;;;;;;5077221;28;20575;-77
2022/07/15 01:12:53;;;;;;;4.10;3.80;;;17.20;99.90;;;;;;5078128;28;20574;-77
2022/07/15 01:15:20;;;;;;;4.23;3.60;;;17.10;99.90;;;;;;5077240;28;20582;-78
2022/07/15 01:17:46;;;;;;;4.17;3.87;;;17.10;99.90;;;;;;5059436;28;20665;-78
2022/07/15 01:20:14;;;;;;;5.90;4.07;;;17.00;99.90;;;;;;5078268;28;20567;-77
2022/07/15 01:22:41;;;;;;;4.67;3.80;;;17.10;99.90;;;;;;5078239;28;20673;-77
2022/07/15 01:25:08;;;;;;;4.10;3.70;;;17.10;99.90;;;;;;5043954;28;20644;-78
2022/07/15 01:27:34;;;;;;;4.40;3.80;;;17.10;99.90;;;;;;5077481;28;20618;-77
2022/07/15 01:30:01;;;;;;;5.43;3.77;;;17.10;99.90;;;;;;5077663;28;20582;-76
2022/07/15 01:32:28;;;;;;;3.70;3.40;;;17.10;99.90;;;;;;5076165;28;20903;-77
2022/07/15 01:34:54;;;;;;;5.43;3.93;;;17.10;99.90;;;;;;5076806;28;20945;-77
2022/07/15 01:37:22;;;;;;;4.67;4.27;;;17.10;99.90;;;;;;5076442;28;20583;-76
2022/07/15 01:39:48;;;;;;;4.27;3.87;;;17.00;99.90;;;;;;5075329;28;20673;-77
2022/07/15 01:42:15;;;;;;;4.90;3.87;;;16.90;99.90;;;;;;5057507;28;20622;-77
2022/07/15 01:44:41;;;;;;;4.33;3.93;;;17.00;99.90;;;;;;5075942;28;20582;-77
2022/07/15 01:47:08;;;;;;;4.93;3.53;;;17.00;99.90;;;;;;5077493;28;20622;-76
2022/07/15 01:49:34;;;;;;;4.97;4.17;;;17.10;99.90;;;;;;5077127;28;20578;-76
2022/07/15 01:52:03;;;;;;;4.20;3.73;;;17.30;99.90;;;;;;5076404;28;20601;-76
2022/07/15 01:54:32;;;;;;;5.10;3.90;;;17.20;99.90;;;;;;5058543;28;20597;-77
2022/07/15 01:56:59;;;;;;;7.20;3.60;;;17.10;99.90;;;;;;5074934;28;21150;-76
2022/07/15 01:59:26;;;;;;;4.30;3.50;;;17.00;99.90;;;;;;5075441;28;20630;-77
2022/07/15 02:01:54;;;;;;;4.50;4.10;;;16.70;99.90;;;;;;5075370;28;20671;-77
2022/07/15 02:04:22;;;;;;;3.50;3.30;;;16.60;99.90;;;;;;5076333;28;20574;-76
2022/07/15 02:06:49;;;;;;;7.50;3.90;;;16.60;99.90;;;;;;5077010;28;21183;-76
2022/07/15 02:09:16;;;;;;;4.53;4.13;;;16.50;99.90;;;;;;5077640;28;20575;-78
2022/07/15 02:11:43;;;;;;;9.27;3.83;;;16.50;99.90;;;;;;5075843;28;20610;-77
2022/07/15 02:14:11;;;;;;;4.10;3.70;;;16.60;99.90;;;;;;5075692;28;20582;-77
2022/07/15 02:16:38;;;;;;;8.23;3.77;;;16.70;99.90;;;;;;5075822;28;20571;-77
2022/07/15 02:19:04;;;;;;;3.53;3.20;;;16.80;99.90;;;;;;5076105;28;20637;-77
2022/07/15 02:21:31;;;;;;;4.37;3.60;;;16.90;99.90;;;;;;5056992;28;20625;-76
2022/07/15 02:23:57;;;;;;;5.87;3.70;;;17.00;99.90;;;;;;5058692;28;20626;-76
2022/07/15 02:26:24;;;;;;;6.33;3.77;;;16.90;99.90;;;;;;5075513;28;20611;-77
2022/07/15 02:28:50;;;;;;;3.93;3.60;;;16.90;99.90;;;;;;5076658;28;20636;-77
2022/07/15 02:31:17;;;;;;;4.83;3.47;;;16.90;99.90;;;;;;5076069;28;21136;-76
2022/07/15 02:33:43;;;;;;;3.83;3.40;;;16.90;99.90;;;;;;5077092;28;20586;-76
2022/07/15 02:36:11;;;;;;;5.37;3.70;;;16.90;99.90;;;;;;5058671;28;20656;-76
2022/07/15 02:38:37;;;;;;;5.23;3.00;;;17.00;99.90;;;;;;5076350;28;20630;-75
2022/07/15 02:41:04;;;;;;;3.63;3.33;;;16.90;99.90;;;;;;5040648;28;21127;-76
2022/07/15 02:43:31;;;;;;;4.97;3.87;;;16.80;99.90;;;;;;5037923;28;20992;-77
2022/07/15 02:46:00;;;;;;;10.83;4.20;;;16.80;99.90;;;;;;5057250;28;20671;-77
2022/07/15 02:48:27;;;;;;;5.47;3.90;;;16.80;99.90;;;;;;5056153;28;20583;-76
2022/07/15 02:50:54;;;;;;;3.43;3.13;;;16.80;99.90;;;;;;5055427;28;21058;-76
2022/07/15 02:53:23;;;;;;;3.33;3.13;;;16.90;99.90;;;;;;5055504;28;20582;-76
2022/07/15 02:55:50;;;;;;;8.00;4.07;;;16.90;99.90;;;;;;5055314;28;20571;-76
2022/07/15 02:58:16;;;;;;;7.50;3.90;;;17.00;99.90;;;;;;5055407;28;20646;-77
2022/07/15 03:00:43;;;;;;;3.33;2.97;;;16.90;99.90;;;;;;5054158;28;20567;-76
2022/07/15 03:03:09;;;;;;;7.77;4.20;;;16.90;99.90;;;;;;5054034;28;20942;-76
2022/07/15 03:05:36;;;;;;;4.47;4.03;;;16.90;99.90;;;;;;5036207;28;20615;-76
2022/07/15 03:08:02;;;;;;;5.10;3.77;;;16.80;99.90;;;;;;5055484;28;20571;-76
2022/07/15 03:10:29;;;;;;;3.93;3.60;;;16.80;99.90;;;;;;5037320;28;20666;-76
2022/07/15 03:12:55;;;;;;;6.20;2.90;;;16.80;99.90;;;;;;5038163;28;20980;-76
2022/07/15 03:15:22;;;;;;;3.90;3.60;;;16.80;99.90;;;;;;5055023;28;20936;-76
2022/07/15 03:17:48;;;;;;;4.57;4.13;;;16.70;99.90;;;;;;5054981;28;21180;-76
2022/07/15 03:20:15;;;;;;;5.67;3.60;;;16.70;99.90;;;;;;5020481;28;21164;-77
2022/07/15 03:22:42;;;;;;;4.40;3.77;;;16.80;99.90;;;;;;5036330;28;20668;-76
2022/07/15 03:25:09;;;;;;;11.03;3.73;;;16.90;99.90;;;;;;5054818;28;20681;-76
2022/07/15 03:27:35;;;;;;;9.03;3.67;;;16.80;99.90;;;;;;5054344;28;20584;-77
2022/07/15 03:30:02;;;;;;;11.23;4.00;;;16.80;99.90;;;;;;5054702;28;20590;-77
2022/07/15 03:32:30;;;;;;;4.50;3.63;;;16.90;99.90;;;;;;5055339;28;21129;-77
2022/07/15 03:34:57;;;;;;;3.20;2.90;;;16.80;99.90;;;;;;5056275;28;20607;-77
2022/07/15 03:37:24;;;;;;;4.03;3.63;;;16.80;99.90;;;;;;5039936;28;21240;-77
2022/07/15 03:39:50;;;;;;;5.93;3.77;;;16.70;99.90;;;;;;5057472;28;20661;-77
2022/07/15 03:42:17;;;;;;;3.83;3.27;;;16.70;99.90;;;;;;5058768;28;20614;-77
2022/07/15 03:44:43;;;;;;;3.53;2.87;;;16.70;99.90;;;;;;5040663;28;20680;-77
2022/07/15 03:47:10;;;;;;;4.20;3.60;;;16.80;99.90;;;;;;5058705;28;20677;-77
2022/07/15 03:49:36;;;;;;;9.37;3.40;;;16.80;99.90;;;;;;5040409;28;20660;-77
2022/07/15 03:52:03;;;;;;;3.47;3.20;;;16.90;99.90;;;;;;5058198;28;20615;-76
2022/07/15 03:54:30;;;;;;;3.83;3.23;;;17.00;99.90;;;;;;5040425;28;20556;-77
2022/07/15 03:56:56;;;;;;;4.07;3.07;;;17.00;99.90;;;;;;5058489;28;20610;-76
2022/07/15 03:59:23;;;;;;;4.90;3.20;;;17.10;99.90;;;;;;5040824;28;20631;-76
2022/07/15 04:01:49;;;;;;;3.67;3.47;;;17.10;99.90;;;;;;5040525;28;20546;-76
2022/07/15 04:04:16;;;;;;;7.90;3.17;;;17.10;99.90;;;;;;5023233;28;21162;-76
2022/07/15 04:06:43;;;;;;;4.53;3.33;;;17.10;99.90;;;;;;5057318;28;20644;-76
2022/07/15 04:09:10;;;;;;;3.37;3.07;;;17.10;99.90;;;;;;5058728;28;20579;-76
2022/07/15 04:11:41;;;;;;;6.13;4.20;;;17.10;99.90;;;;;;5058333;28;20626;-77
2022/07/15 04:14:12;;;;;;;3.87;3.50;;;17.00;99.90;;;;;;5058756;28;20993;-76
2022/07/15 04:16:40;;;;;;;3.77;3.40;;;16.90;99.90;;;;;;5058378;28;20633;-76
2022/07/15 04:19:07;;;;;;;6.03;3.53;;;16.90;99.90;;;;;;5057607;28;20642;-76
2022/07/15 04:21:33;;;;;;;4.43;3.33;;;16.90;99.90;;;;;;5023383;28;20615;-76
2022/07/15 04:24:00;;;;;;;3.77;3.37;;;16.90;99.90;;;;;;5057502;28;20643;-76
2022/07/15 04:26:27;;;;;;;4.00;3.70;;;16.70;99.90;;;;;;5057736;28;20582;-76
2022/07/15 04:28:55;;;;;;;4.77;3.73;;;16.60;99.90;;;;;;5057458;28;20586;-76
2022/07/15 04:31:21;;;;;;;4.90;3.20;;;16.60;99.90;;;;;;5039592;28;20556;-76
2022/07/15 04:33:48;;;;;;;4.47;4.07;;;16.60;99.90;;;;;;5057240;28;20602;-75
2022/07/15 04:36:14;;;;;;;6.90;4.27;;;16.70;99.90;;;;;;5056533;28;21110;-74
2022/07/15 04:38:41;;;;;;;5.73;4.00;;;16.70;99.90;;;;;;5038147;28;20987;-75
2022/07/15 04:41:08;;;;;;;3.90;3.60;;;16.70;99.90;;;;;;5038568;28;21179;-75
2022/07/15 04:43:34;;;;;;;5.93;3.93;;;16.90;99.90;;;;;;5037622;28;20688;-74
2022/07/15 04:46:01;;;;;;;12.03;4.10;;;17.00;99.90;;;;;;5056089;28;20661;-74
2022/07/15 04:51:12;;;;;;;3.97;3.57;;;17.00;99.90;;;;;;5056107;28;20585;-75
2022/07/15 04:53:39;;;;;;;3.60;3.40;;;17.10;99.90;;;;;;5056160;28;20579;-75
2022/07/15 04:56:06;;;;;;;4.57;3.17;;;17.20;99.90;;;;;;5054376;28;20634;-75
2022/07/15 04:58:32;;;;;;;6.57;3.80;;;17.30;99.90;;;;;;5055207;28;20742;-75
2022/07/15 05:00:58;;;;;;;7.17;4.00;;;17.30;99.90;;;;;;5055607;28;20579;-75
2022/07/15 05:03:25;;;;;;;5.13;4.20;;;17.50;99.90;;;;;;5038258;28;20590;-75
2022/07/15 05:05:52;;;;;;;7.27;3.90;;;17.50;99.90;;;;;;5055648;28;20994;-75
2022/07/15 05:08:20;;;;;;;5.40;3.80;;;17.50;99.90;;;;;;5037754;28;20955;-75
2022/07/15 05:10:46;;;;;;;4.80;3.63;;;17.60;99.90;;;;;;5055758;28;20986;-75
2022/07/15 05:13:13;;;;;;;11.20;3.80;;;17.60;99.90;;;;;;5054310;28;20976;-74
2022/07/15 05:15:40;;;;;;;6.17;5.07;;;17.60;99.90;;;;;;5056204;28;20603;-75
2022/07/15 05:18:07;;;;;;;3.80;3.50;;;17.70;99.90;;;;;;5054342;28;20619;-75
2022/07/15 05:20:34;;;;;;;3.90;3.60;;;17.80;99.90;;;;;;5038642;28;20631;-74
2022/07/15 05:23:00;;;;;;;8.27;7.60;;;18.00;99.90;;;;;;5055621;28;21106;-74
2022/07/15 05:25:27;;;;;;;7.30;3.70;;;18.00;99.90;;;;;;5055405;28;20646;-73
2022/07/15 05:27:53;;;;;;;5.00;3.70;;;18.10;99.90;;;;;;5054920;28;20965;-74
2022/07/15 05:30:20;;;;;;;4.93;3.30;;;18.20;99.90;;;;;;5055397;28;20611;-73
2022/07/15 05:32:46;;;;;;;6.53;3.07;;;18.00;99.90;;;;;;5054986;28;20588;-73
2022/07/15 05:35:17;;;;;;;6.13;3.30;;;17.90;99.90;;;;;;5055238;28;20583;-74
2022/07/15 05:37:43;;;;;;;5.07;3.60;;;18.10;99.90;;;;;;5054896;28;20567;-74
2022/07/15 05:40:11;;;;;;;4.60;4.17;;;18.20;99.90;;;;;;5054307;28;20666;-74
2022/07/15 05:42:39;;;;;;;8.30;3.63;;;18.20;99.90;;;;;;5074813;28;20933;-74
2022/07/15 05:45:06;;;;;;;6.80;3.63;;;18.20;99.90;;;;;;5074860;28;20630;-74
2022/07/15 05:47:32;;;;;;;6.00;3.70;;;18.30;99.90;;;;;;5057662;28;21164;-74
2022/07/15 05:57:38;;;;;;;3.80;3.23;;;18.70;99.90;;;;;;5075072;28;20734;-74
2022/07/15 06:00:29;;;;;;;7.30;3.40;;;18.90;99.90;;;;;;5074774;28;20992;-74
2022/07/15 06:03:23;;;;;;;5.87;3.77;;;19.00;99.90;;;;;;5060558;28;20533;-74
2022/07/15 06:10:03;;;;;;;3.90;3.33;;;19.30;99.90;;;;;;5074457;28;20510;-75
2022/07/15 06:12:29;;;;;;;4.70;2.80;;;19.40;99.90;;;;;;5074201;28;20703;-73
2022/07/15 06:14:56;;;;;;;3.97;3.23;;;19.30;99.90;;;;;;5074265;28;20598;-74
2022/07/15 06:17:22;;;;;;;3.23;2.97;;;19.40;99.90;;;;;;5074899;28;20626;-73
2022/07/15 06:19:48;;;;;;;4.57;3.43;;;19.50;99.90;;;;;;5074058;28;20654;-75
2022/07/15 06:22:15;;;;;;;7.50;3.33;;;19.50;99.90;;;;;;5074600;28;20599;-76
2022/07/15 06:24:41;;;;;;;9.83;3.90;;;19.70;99.90;;;;;;5074802;28;20638;-73
2022/07/15 06:27:08;;;;;;;7.97;3.50;;;19.70;99.90;;;;;;5075672;28;20583;-74
2022/07/15 06:29:35;;;;;;;4.90;3.37;;;19.60;99.90;;;;;;5041129;28;20630;-74
2022/07/15 06:32:01;;;;;;;4.20;3.40;;;19.80;99.90;;;;;;5075400;28;20610;-74
2022/07/15 06:34:28;;;;;;;3.50;3.20;;;19.90;99.90;;;;;;5074976;28;20641;-73
2022/07/15 06:36:54;;;;;;;4.77;3.40;;;20.00;99.90;;;;;;5057495;28;21028;-73
2022/07/15 06:39:21;;;;;;;14.00;3.10;;;20.00;99.90;;;;;;5074479;28;21192;-74
2022/07/15 06:41:48;;;;;;;4.30;3.53;;;20.00;99.90;;;;;;5073912;28;20629;-74
2022/07/15 06:44:14;;;;;;;3.90;3.43;;;20.10;99.90;;;;;;5073817;28;20633;-75
2022/07/15 06:46:41;;;;;;;5.37;3.47;;;20.10;99.90;;;;;;5072803;28;20622;-75
2022/07/15 06:49:08;;;;;;;10.23;3.40;;;20.30;99.90;;;;;;5038706;28;20618;-75
2022/07/15 06:51:34;;;;;;;7.10;4.00;;;20.30;99.90;;;;;;5073538;28;20570;-74
2022/07/15 06:54:01;;;;;;;7.03;3.63;;;20.30;99.90;;;;;;5073250;28;20976;-73
2022/07/15 06:56:29;;;;;;;6.00;2.90;;;20.20;99.90;;;;;;5073884;28;21134;-74
2022/07/15 06:58:56;;;;;;;5.93;3.93;;;20.30;99.90;;;;;;5072963;28;21219;-75
2022/07/15 07:01:23;;;;;;;3.50;3.20;;;20.50;99.90;;;;;;5056699;28;20611;-74
2022/07/15 07:03:49;;;;;;;4.23;3.27;;;20.60;99.90;;;;;;5074143;28;21009;-75
2022/07/15 07:06:16;;;;;;;5.50;2.90;;;20.60;99.90;;;;;;5073861;28;21125;-74
2022/07/15 07:08:42;;;;;;;4.80;3.40;;;20.50;99.90;;;;;;5074603;28;20579;-76
2022/07/15 07:11:09;;;;;;;3.70;3.20;;;20.70;99.90;;;;;;5073738;28;20571;-76
2022/07/15 07:13:35;;;;;;;3.47;3.00;;;20.70;99.90;;;;;;5071827;28;20636;-73
2022/07/15 07:16:02;;;;;;;3.77;3.30;;;20.90;99.90;;;;;;5072965;28;20615;-74
2022/07/15 07:18:29;;;;;;;6.13;3.10;;;20.80;99.90;;;;;;5073375;28;20618;-73
2022/07/15 07:20:56;;;;;;;3.40;3.10;;;20.70;99.90;;;;;;5073924;28;20645;-77
2022/07/15 07:23:26;;;;;;;4.40;3.20;;;20.80;99.90;;;;;;5073199;28;20618;-74
2022/07/15 07:25:53;;;;;;;4.67;2.97;;;21.00;99.90;;;;;;5072979;28;21160;-74
2022/07/15 07:28:20;;;;;;;3.80;3.50;;;21.10;99.90;;;;;;5073799;28;20606;-75
2022/07/15 07:30:49;;;;;;;8.67;3.60;;;21.10;99.90;;;;;;5071994;28;20618;-74
2022/07/15 07:33:16;;;;;;;6.80;3.80;;;21.10;99.90;;;;;;5072967;28;20618;-74
2022/07/15 07:35:43;;;;;;;9.67;3.60;;;21.10;99.90;;;;;;5073509;28;20575;-73
2022/07/15 07:38:10;;;;;;;5.10;3.53;;;21.20;99.90;;;;;;5073500;28;20601;-73
2022/07/15 07:40:37;;;;;;;4.20;3.47;;;21.30;99.90;;;;;;5074873;28;20729;-74
2022/07/15 07:43:03;;;;;;;4.47;3.00;;;21.10;99.90;;;;;;5074276;28;20593;-75
2022/07/15 07:45:30;;;;;;;5.33;3.77;;;21.10;99.90;;;;;;5074131;28;20601;-76
2022/07/15 07:47:57;;;;;;;3.70;3.43;;;21.30;99.90;;;;;;5074881;28;20650;-76
2022/07/15 07:50:23;;;;;;;3.60;3.30;;;21.30;99.90;;;;;;5056544;28;21175;-74
2022/07/15 07:52:50;;;;;;;4.20;3.17;;;21.20;99.90;;;;;;5073114;28;21060;-74
2022/07/15 07:55:16;;;;;;;3.60;3.30;;;21.40;99.90;;;;;;5056166;28;20652;-73
2022/07/15 07:57:54;;;;;;;10.73;3.50;;;21.70;99.90;;;;;;5055682;28;20992;-74
2022/07/15 08:00:23;;;;;;;4.27;3.60;;;22.00;99.90;;;;;;5072975;28;20669;-74
2022/07/15 08:02:50;;;;;;;6.30;3.20;;;21.80;99.90;;;;;;5073627;28;20579;-74
2022/07/15 08:05:17;;;;;;;4.10;3.47;;;21.90;99.90;;;;;;5073440;28;20618;-74
2022/07/15 08:07:43;;;;;;;6.10;3.20;;;22.00;99.90;;;;;;5073522;28;20594;-74
2022/07/15 08:10:11;;;;;;;3.67;3.00;;;21.90;99.90;;;;;;5073831;28;20950;-74
2022/07/15 08:12:38;;;;;;;5.20;3.53;;;21.90;99.90;;;;;;5073447;28;20639;-74
2022/07/15 08:15:07;;;;;;;6.17;3.23;;;22.00;99.90;;;;;;5073310;28;20590;-72
2022/07/15 08:17:34;;;;;;;4.93;3.37;;;22.20;99.90;;;;;;5055611;28;21151;-73
2022/07/15 08:20:01;;;;;;;3.50;3.20;;;22.10;99.90;;;;;;5041164;28;20664;-73
2022/07/15 08:22:28;;;;;;;9.90;4.40;;;22.40;99.90;;;;;;5076173;28;21003;-72
2022/07/15 08:24:54;;;;;;;8.70;3.97;;;22.40;99.90;;;;;;5074947;28;20650;-72
2022/07/15 08:27:20;;;;;;;5.27;2.80;;;22.30;99.90;;;;;;5076691;28;20578;-74
2022/07/15 08:29:47;;;;;;;4.13;3.80;;;22.50;99.90;;;;;;5076222;28;20578;-75
2022/07/15 08:32:13;;;;;;;6.97;3.37;;;22.80;99.90;;;;;;5057676;28;20984;-76
2022/07/15 08:34:41;;;;;;;4.43;3.17;;;22.90;99.90;;;;;;5076288;28;20610;-75
2022/07/15 08:37:09;;;;;;;4.67;3.60;;;22.80;99.90;;;;;;5075453;28;20649;-75
2022/07/15 08:39:38;;;;;;;7.13;3.93;;;22.90;99.90;;;;;;5076174;28;20658;-75
2022/07/15 08:42:06;;;;;;;4.23;3.37;;;22.70;99.90;;;;;;5074927;28;20675;-76
2022/07/15 08:44:35;;;;;;;4.70;3.37;;;22.60;99.90;;;;;;5041400;28;20622;-72
2022/07/15 08:47:05;;;;;;;3.70;3.13;;;22.50;99.90;;;;;;5074286;28;20957;-71
2022/07/15 08:49:33;;;;;;;4.93;3.57;;;22.70;99.90;;;;;;5075722;28;20618;-71
2022/07/15 08:52:01;;;;;;;4.60;3.37;;;22.60;99.90;;;;;;5077053;28;20571;-77
2022/07/15 08:54:28;;;;;;;5.00;3.40;;;22.70;99.90;;;;;;5059136;28;20624;-75
2022/07/15 08:56:55;;;;;;;4.33;3.47;;;23.00;99.90;;;;;;5075563;28;20625;-74
2022/07/15 08:59:22;;;;;;;4.83;3.30;;;23.10;99.90;;;;;;5042587;28;20760;-74
2022/07/15 09:01:49;;;;;;;6.27;3.40;;;23.10;99.90;;;;;;5059475;28;20978;-75
2022/07/15 09:04:17;;;;;;;5.10;3.10;;;23.20;99.90;;;;;;5058573;28;20606;-72
2022/07/15 09:06:47;;;;;;;3.23;3.03;;;23.20;99.90;;;;;;5075758;28;20617;-74
2022/07/15 09:09:27;;;;;;;6.87;3.63;;;23.20;99.90;;;;;;5057544;28;20619;-73
2022/07/15 09:12:12;;;;;;;7.63;3.10;;;23.20;99.90;;;;;;5074872;28;20617;-73
2022/07/15 09:14:41;;;;;;;8.53;3.70;;;23.20;99.90;;;;;;5075608;28;20912;-73
2022/07/15 09:17:11;;;;;;;3.60;3.30;;;23.30;99.90;;;;;;5075731;28;20585;-73
2022/07/15 09:20:11;;;;;;;6.40;3.00;;;23.60;99.90;;;;;;5075613;28;20642;-74
2022/07/15 09:22:53;;;;;;;4.70;3.57;;;23.60;99.90;;;;;;5076231;28;20578;-75
2022/07/15 09:25:20;;;;;;;3.53;3.20;;;23.20;99.90;;;;;;5058318;28;20671;-76
2022/07/15 09:27:48;;;;;;;3.50;3.20;;;23.50;99.90;;;;;;5075158;28;20624;-73
2022/07/15 09:36:18;;;;;;;7.17;3.23;;;23.70;99.90;;;;;;5078953;28;20640;-73
2022/07/15 09:38:47;;;;;;;6.30;3.40;;;23.90;99.90;;;;;;5077169;28;20618;-73
2022/07/15 09:41:26;;;;;;;6.23;3.60;;;24.30;99.90;;;;;;5058595;28;21250;-73
2022/07/15 09:44:16;;;;;;;3.97;3.67;;;24.30;99.90;;;;;;5058710;28;20610;-74
2022/07/15 09:46:43;;;;;;;9.30;4.13;;;24.10;99.90;;;;;;5075926;28;20635;-76
2022/07/15 09:49:15;;;;;;;6.50;3.47;;;24.30;99.90;;;;;;5075525;28;20613;-74
2022/07/15 09:51:48;;;;;;;4.93;4.00;;;24.10;99.90;;;;;;5057310;28;20606;-75
2022/07/15 09:54:15;;;;;;;3.93;3.53;;;24.10;99.90;;;;;;5058661;28;20579;-74
2022/07/15 09:56:41;;;;;;;5.97;3.80;;;24.10;99.90;;;;;;5074979;28;20578;-73
2022/07/15 09:59:09;;;;;;;3.47;3.17;;;24.10;99.90;;;;;;5075077;28;20578;-73
2022/07/15 10:01:36;;;;;;;3.93;3.30;;;24.20;99.90;;;;;;5075009;28;21226;-73
2022/07/15 10:04:04;;;;;;;4.37;3.50;;;23.90;99.90;;;;;;5074642;28;20615;-73
2022/07/15 10:06:32;;;;;;;5.03;3.30;;;24.40;99.90;;;;;;5074784;28;20578;-73
2022/07/15 10:08:59;;;;;;;6.20;3.30;;;24.50;99.90;;;;;;5074572;28;20668;-73
2022/07/15 10:11:27;;;;;;;6.10;3.70;;;24.40;99.90;;;;;;5074377;28;20575;-74
2022/07/15 10:14:01;;;;;;;4.20;3.27;;;24.60;99.90;;;;;;5074217;28;20583;-73
2022/07/15 10:17:11;;;;;;;3.87;3.57;;;24.70;99.90;;;;;;5055173;28;20628;-73
2022/07/15 10:20:08;;;;;;;3.90;3.70;;;24.90;99.90;;;;;;5073355;28;20666;-74
2022/07/15 10:22:46;;;;;;;4.03;3.63;;;24.60;99.90;;;;;;5074396;28;20615;-74
2022/07/15 10:25:28;;;;;;;4.33;3.93;;;24.60;99.90;;;;;;5074688;28;20667;-75
2022/07/15 10:28:04;;;;;;;3.53;3.33;;;25.20;99.90;;;;;;5074313;28;20937;-74
2022/07/15 10:30:31;;;;;;;5.83;3.93;;;25.50;99.90;;;;;;5073986;28;21159;-73
2022/07/15 10:33:17;;;;;;;4.57;4.07;;;25.30;99.90;;;;;;5073106;28;20630;-73
2022/07/15 10:35:46;;;;;;;4.60;3.27;;;25.20;99.90;;;;;;5073416;28;20977;-73
2022/07/15 10:38:39;;;;;;;8.80;3.70;;;24.70;99.90;;;;;;5073264;28;20968;-73
2022/07/15 10:41:20;;;;;;;4.00;3.43;;;25.10;99.90;;;;;;5072673;28;21227;-73
2022/07/15 10:43:54;;;;;;;4.00;3.50;;;25.40;99.90;;;;;;5072927;28;21140;-75
2022/07/15 10:46:23;;;;;;;3.87;3.30;;;25.40;99.90;;;;;;5073216;28;20708;-74
2022/07/15 10:48:53;;;;;;;5.73;4.00;;;25.60;99.90;;;;;;5073961;28;20644;-75
2022/07/15 10:51:37;;;;;;;4.00;3.47;;;25.60;99.90;;;;;;5072799;28;20637;-75
2022/07/15 10:54:05;;;;;;;4.70;4.27;;;25.50;99.90;;;;;;5072976;28;20578;-74
2022/07/15 10:56:42;;;;;;;4.40;4.00;;;25.60;99.90;;;;;;5055139;28;21072;-74
2022/07/15 10:59:09;;;;;;;5.43;4.10;;;25.60;99.90;;;;;;5073590;28;20655;-74
2022/07/15 11:01:43;;;;;;;4.00;3.80;;;26.10;99.90;;;;;;5072914;28;20992;-72
2022/07/15 11:04:19;;;;;;;3.90;3.57;;;26.00;99.90;;;;;;5054819;28;20617;-72
2022/07/15 11:07:07;;;;;;;5.47;4.80;;;26.00;99.90;;;;;;5073365;28;20633;-73
2022/07/15 11:09:44;;;;;;;3.93;3.63;;;25.90;99.90;;;;;;5073080;28;21128;-74
2022/07/15 11:12:11;;;;;;;7.80;4.30;;;25.90;99.90;;;;;;5074177;28;20578;-73
2022/07/15 11:14:43;;;;;;;4.10;3.83;;;26.10;99.90;;;;;;5074057;28;20635;-73
2022/07/15 11:17:11;;;;;;;4.00;3.73;;;26.40;99.90;;;;;;5073877;28;20979;-73
2022/07/15 11:19:39;;;;;;;6.37;4.17;;;26.60;99.90;;;;;;5073736;28;21119;-73
2022/07/15 11:22:09;;;;;;;4.27;3.80;;;26.80;99.90;;;;;;5073768;28;20634;-73
2022/07/15 11:24:36;;;;;;;4.27;3.80;;;25.70;99.90;;;;;;5073180;28;20607;-75
2022/07/15 11:27:03;;;;;;;8.03;4.50;;;26.30;99.90;;;;;;5073716;28;20601;-75
2022/07/15 11:30:01;;;;;;;5.27;4.13;;;27.40;99.90;;;;;;5054929;28;20675;-74
2022/07/15 11:32:32;;;;;;;3.90;3.70;;;28.20;99.90;;;;;;5072972;28;20598;-75
2022/07/15 11:35:02;;;;;;;8.97;4.70;;;28.30;99.90;;;;;;5072453;28;21185;-74
2022/07/15 11:37:34;;;;;;;7.90;3.97;;;27.20;99.90;;;;;;5055442;28;20642;-75
2022/07/15 11:44:29;;;;;;;4.00;3.80;;;27.00;99.90;;;;;;5072933;28;20681;-75
2022/07/15 11:45:44;;;;;;;4.00;3.80;;;27.40;99.90;;;;;;5073355;28;20640;-75
2022/07/15 11:48:11;;;;;;;6.37;4.83;;;28.10;99.90;;;;;;5073593;28;20671;-76
2022/07/15 11:50:48;;;;;;;7.63;4.10;;;27.90;99.90;;;;;;5055642;28;20618;-76
2022/07/15 11:53:15;;;;;;;6.10;4.03;;;28.10;99.90;;;;;;5073310;28;20614;-75
2022/07/15 11:56:09;;;;;;;5.80;4.40;;;27.40;99.90;;;;;;5077215;28;20589;-75
2022/07/15 11:58:37;;;;;;;4.83;4.20;;;27.30;99.90;;;;;;5057207;28;20642;-74
2022/07/15 12:01:08;;;;;;;4.53;4.00;;;27.40;99.90;;;;;;5077216;28;20677;-76
2022/07/15 12:03:39;;;;;;;8.33;4.03;;;27.30;99.90;;;;;;5077184;28;20578;-73
2022/07/15 12:06:21;;;;;;;4.60;4.30;;;26.80;99.90;;;;;;5058430;28;20622;-73
2022/07/15 12:09:08;;;;;;;4.97;4.50;;;26.40;99.90;;;;;;5057967;28;20624;-73
2022/07/15 12:11:36;;;;;;;4.40;4.00;;;25.90;99.90;;;;;;5076112;28;21149;-73
2022/07/15 12:14:05;;;;;;;4.60;4.20;;;26.20;99.90;;;;;;5058640;28;20574;-73
2022/07/15 12:16:39;;;;;;;5.80;3.90;;;27.20;99.90;;;;;;5076045;28;20936;-73
2022/07/15 12:19:17;;;;;;;4.20;3.80;;;28.00;99.90;;;;;;5076068;28;20579;-74
2022/07/15 12:21:47;;;;;;;4.87;4.30;;;28.40;99.90;;;;;;5076048;28;20657;-73
2022/07/15 12:24:20;;;;;;;4.77;4.40;;;28.90;99.90;;;;;;5076337;28;20688;-73
2022/07/15 12:26:54;;;;;;;3.97;3.73;;;29.10;99.90;;;;;;5076852;28;20625;-73
2022/07/15 12:29:27;;;;;;;11.63;4.13;;;28.50;99.90;;;;;;5077513;28;20570;-76
2022/07/15 12:31:57;;;;;;;5.33;4.90;;;27.80;99.90;;;;;;5077445;28;20579;-74
2022/07/15 12:34:46;;;;;;;6.13;3.90;;;28.80;99.90;;;;;;5076944;28;20570;-74
2022/07/15 12:37:32;;;;;;;8.60;4.20;;;28.50;99.90;;;;;;5077380;28;20967;-74
2022/07/15 12:40:06;;;;;;;4.80;4.40;;;28.80;99.90;;;;;;5057655;28;20650;-74
2022/07/15 12:42:44;;;;;;;3.70;3.50;;;28.80;99.90;;;;;;5075620;28;20667;-74
2022/07/15 12:45:21;;;;;;;8.27;3.90;;;28.70;99.90;;;;;;5075229;28;20622;-73
2022/07/15 12:47:57;;;;;;;6.60;4.10;;;27.70;99.90;;;;;;5075674;28;21253;-73
2022/07/15 12:50:25;;;;;;;4.97;3.97;;;26.90;99.90;;;;;;5075831;28;20589;-73
2022/07/15 12:52:54;;;;;;;5.13;4.00;;;27.40;99.90;;;;;;5076214;28;21103;-73
2022/07/15 12:55:41;;;;;;;4.13;3.90;;;29.20;99.90;;;;;;5076203;28;20574;-73
2022/07/15 12:58:12;;;;;;;4.23;3.93;;;29.10;99.90;;;;;;5075791;28;20578;-73
2022/07/15 13:00:40;;;;;;;4.90;4.13;;;28.20;99.90;;;;;;5075601;28;20666;-74
2022/07/15 13:03:11;;;;;;;5.47;3.80;;;27.10;99.90;;;;;;5075766;28;20574;-75
2022/07/15 13:05:39;;;;;;;11.40;4.17;;;26.80;99.90;;;;;;5056463;28;21176;-73
2022/07/15 13:08:08;;;;;;;5.93;4.23;;;27.20;99.90;;;;;;5075186;28;21121;-74
2022/07/15 13:10:35;;;;;;;5.90;4.17;;;27.50;99.90;;;;;;5075223;28;20589;-74
2022/07/15 13:13:02;;;;;;;4.27;3.97;;;27.90;99.90;;;;;;5075431;28;20609;-74
2022/07/15 13:15:29;;;;;;;5.80;4.00;;;29.20;99.90;;;;;;5075511;28;20966;-74
2022/07/15 13:17:55;;;;;;;8.23;4.43;;;29.30;99.90;;;;;;5075281;28;20743;-74
2022/07/15 13:20:22;;;;;;;4.17;3.90;;;29.40;99.90;;;;;;5075151;28;21067;-72